createdAt,value
2017-07-15T00:01:29.249Z,52.83
2017-07-15T00:03:56.802Z,52.64
2017-07-15T00:06:24.318Z,52.50
2017-07-15T00:08:51.862Z,52.71
2017-07-15T00:11:19.380Z,52.57
2017-07-15T00:13:46.933Z,52.93
2017-07-15T00:16:14.443Z,52.92
2017-07-15T00:18:41.992Z,52.96
2017-07-15T00:21:09.505Z,52.99
2017-07-15T00:23:37.048Z,52.95
2017-07-15T00:26:04.568Z,52.94
2017-07-15T00:28:32.113Z,52.98
2017-07-15T00:30:59.635Z,52.97
2017-07-15T00:33:27.182Z,53.19
2017-07-15T00:35:54.702Z,53.18
2017-07-15T00:38:22.267Z,53.26
2017-07-15T00:40:49.785Z,53.36
2017-07-15T00:43:17.303Z,53.28
2017-07-15T00:45:45.121Z,53.16
2017-07-15T00:48:12.669Z,53.33
2017-07-15T00:50:40.221Z,53.46
2017-07-15T00:53:07.745Z,53.31
2017-07-15T00:55:35.289Z,53.38
2017-07-15T00:58:02.801Z,53.13
2017-07-15T01:00:30.356Z,53.18
2017-07-15T01:02:57.872Z,53.21
2017-07-15T01:05:25.418Z,53.14
2017-07-15T01:07:52.937Z,53.16
2017-07-15T01:10:20.490Z,53.13
2017-07-15T01:12:48.027Z,53.18
2017-07-15T01:15:15.579Z,53.10
2017-07-15T01:17:43.097Z,53.15
2017-07-15T01:20:10.653Z,53.00
2017-07-15T01:22:38.172Z,52.85
2017-07-15T01:25:05.719Z,52.82
2017-07-15T01:27:33.272Z,52.50
2017-07-15T01:30:00.849Z,52.22
2017-07-15T01:32:28.373Z,51.92
2017-07-15T01:34:55.895Z,51.78
2017-07-15T01:37:23.441Z,51.47
2017-07-15T01:39:50.959Z,51.36
2017-07-15T01:42:18.518Z,51.03
2017-07-15T01:44:46.028Z,50.98
2017-07-15T01:47:13.592Z,50.88
2017-07-15T01:49:41.112Z,50.76
2017-07-15T01:52:08.653Z,50.64
2017-07-15T01:54:36.162Z,50.50
2017-07-15T01:57:03.703Z,50.30
2017-07-15T01:59:31.220Z,50.27
2017-07-15T02:01:58.788Z,50.33
2017-07-15T02:04:26.315Z,50.27
2017-07-15T02:06:53.861Z,50.26
2017-07-15T02:09:21.375Z,50.23
2017-07-15T02:11:48.926Z,50.24
2017-07-15T02:14:16.445Z,50.22
2017-07-15T02:16:43.988Z,50.21
2017-07-15T02:19:11.507Z,50.10
2017-07-15T02:21:39.054Z,50.17
2017-07-15T02:24:06.569Z,50.05
2017-07-15T02:26:34.082Z,50.02
2017-07-15T02:29:01.640Z,49.96
2017-07-15T02:31:29.158Z,50.01
2017-07-15T02:33:56.702Z,49.98
2017-07-15T02:36:24.214Z,49.98
2017-07-15T02:38:51.766Z,49.98
2017-07-15T02:41:19.285Z,49.92
2017-07-15T02:43:46.839Z,49.83
2017-07-15T02:46:14.353Z,49.77
2017-07-15T02:48:41.908Z,49.86
2017-07-15T02:51:09.453Z,49.70
2017-07-15T02:53:37.007Z,49.79
2017-07-15T02:56:04.523Z,49.82
2017-07-15T02:58:32.085Z,49.84
2017-07-15T03:00:59.592Z,49.88
2017-07-15T03:03:27.142Z,49.88
2017-07-15T03:05:54.657Z,49.82
2017-07-15T03:08:22.204Z,49.84
2017-07-15T03:10:49.726Z,49.83
2017-07-15T03:13:17.247Z,49.78
2017-07-15T03:15:44.798Z,49.82
2017-07-15T03:18:12.322Z,49.81
2017-07-15T03:20:39.877Z,49.75
2017-07-15T03:23:07.385Z,49.73
2017-07-15T03:25:34.935Z,49.65
2017-07-15T03:28:02.461Z,49.67
2017-07-15T03:30:30.015Z,49.65
2017-07-15T03:32:57.544Z,49.47
2017-07-15T03:35:25.107Z,49.41
2017-07-15T03:37:52.626Z,49.52
2017-07-15T03:40:20.170Z,49.45
2017-07-15T03:42:47.692Z,49.45
2017-07-15T03:45:15.245Z,49.42
2017-07-15T03:47:42.759Z,49.51
2017-07-15T03:50:10.306Z,49.55
2017-07-15T03:52:37.832Z,49.47
2017-07-15T03:55:05.394Z,49.48
2017-07-15T03:57:32.909Z,49.64
2017-07-15T04:00:00.500Z,49.56
2017-07-15T04:02:28.052Z,49.57
2017-07-15T04:04:55.578Z,49.76
2017-07-15T04:07:23.131Z,49.74
2017-07-15T04:09:50.654Z,49.69
2017-07-15T04:12:18.209Z,49.73
2017-07-15T04:14:45.725Z,49.78
2017-07-15T04:17:13.287Z,49.83
2017-07-15T04:19:40.808Z,49.73
2017-07-15T04:22:08.361Z,49.72
2017-07-15T04:24:35.880Z,49.65
2017-07-15T04:27:03.429Z,49.45
2017-07-15T04:29:30.953Z,49.33
2017-07-15T04:31:58.502Z,49.32
2017-07-15T04:34:26.023Z,49.59
2017-07-15T04:36:53.570Z,49.69
2017-07-15T04:39:21.085Z,49.76
2017-07-15T04:41:48.631Z,49.96
2017-07-15T04:44:16.141Z,49.87
2017-07-15T04:46:43.706Z,50.03
2017-07-15T04:49:11.223Z,50.14
2017-07-15T04:51:38.732Z,50.00
2017-07-15T04:54:06.281Z,49.83
2017-07-15T04:56:33.799Z,50.12
2017-07-15T04:59:01.345Z,51.30
2017-07-15T05:01:28.883Z,50.46
2017-07-15T05:03:56.422Z,50.51
2017-07-15T05:06:23.937Z,50.59
2017-07-15T05:08:51.482Z,50.99
2017-07-15T05:11:18.996Z,49.60
2017-07-15T05:13:46.547Z,49.38
2017-07-15T05:16:14.079Z,48.90
2017-07-15T05:18:41.641Z,48.97
2017-07-15T05:21:09.167Z,48.89
2017-07-15T05:23:36.715Z,48.46
2017-07-15T05:26:04.234Z,48.55
2017-07-15T05:28:31.791Z,48.56
2017-07-15T05:30:59.313Z,48.54
2017-07-15T05:33:26.868Z,48.39
2017-07-15T05:35:54.385Z,48.42
2017-07-15T05:38:21.956Z,48.37
2017-07-15T05:40:49.473Z,48.24
2017-07-15T05:43:16.989Z,48.10
2017-07-15T05:45:44.539Z,48.17
2017-07-15T05:48:12.059Z,48.00
2017-07-15T05:50:39.606Z,47.96
2017-07-15T05:53:07.126Z,47.94
2017-07-15T05:55:34.695Z,47.89
2017-07-15T05:58:02.218Z,47.57
2017-07-15T06:00:29.764Z,47.52
2017-07-15T06:02:57.289Z,47.34
2017-07-15T06:05:24.846Z,47.62
2017-07-15T06:07:52.365Z,47.82
2017-07-15T06:10:19.920Z,47.50
2017-07-15T06:12:47.478Z,47.48
2017-07-15T06:15:15.115Z,47.48
2017-07-15T06:17:42.642Z,47.59
2017-07-15T06:20:10.209Z,47.65
2017-07-15T06:22:37.734Z,47.65
2017-07-15T06:25:05.288Z,47.48
2017-07-15T06:27:32.803Z,47.66
2017-07-15T06:30:00.358Z,47.55
2017-07-15T06:32:27.874Z,47.44
2017-07-15T06:34:55.408Z,47.50
2017-07-15T06:37:22.970Z,47.50
2017-07-15T06:39:50.491Z,47.53
2017-07-15T06:42:18.035Z,47.48
2017-07-15T06:44:45.558Z,47.37
2017-07-15T06:47:13.103Z,47.54
2017-07-15T06:49:40.634Z,47.47
2017-07-15T06:52:08.184Z,47.36
2017-07-15T06:54:35.696Z,47.23
2017-07-15T06:57:03.292Z,47.08
2017-07-15T06:59:30.809Z,47.00
2017-07-15T07:01:58.362Z,47.05
2017-07-15T07:04:25.877Z,47.13
2017-07-15T07:06:53.437Z,47.03
2017-07-15T07:09:20.955Z,46.79
2017-07-15T07:11:48.508Z,46.67
2017-07-15T07:14:16.026Z,46.66
2017-07-15T07:16:43.592Z,46.40
2017-07-15T07:19:11.117Z,46.07
2017-07-15T07:21:38.635Z,46.04
2017-07-15T07:24:06.192Z,46.08
2017-07-15T07:26:33.722Z,46.11
2017-07-15T07:29:01.270Z,45.93
2017-07-15T07:31:28.924Z,45.88
2017-07-15T07:33:56.525Z,45.84
2017-07-15T07:36:24.047Z,45.67
2017-07-15T07:38:51.601Z,45.60
2017-07-15T07:41:19.113Z,45.84
2017-07-15T07:43:46.676Z,45.84
2017-07-15T07:46:14.189Z,45.96
2017-07-15T07:48:41.751Z,45.95
2017-07-15T07:51:09.273Z,45.67
2017-07-15T07:53:36.822Z,45.68
2017-07-15T07:56:04.358Z,45.36
2017-07-15T07:58:31.928Z,45.44
2017-07-15T08:00:59.442Z,45.36
2017-07-15T08:03:27.006Z,45.28
2017-07-15T08:05:54.523Z,45.58
2017-07-15T08:08:22.042Z,45.41
2017-07-15T08:10:49.591Z,44.87
2017-07-15T08:13:17.118Z,44.99
2017-07-15T08:15:44.684Z,45.14
2017-07-15T08:18:12.212Z,45.22
2017-07-15T08:20:39.757Z,45.17
2017-07-15T08:23:07.270Z,44.76
2017-07-15T08:25:34.820Z,44.79
2017-07-15T08:28:02.336Z,44.53
2017-07-15T08:30:29.893Z,44.49
2017-07-15T08:32:57.507Z,44.66
2017-07-15T08:35:25.091Z,44.30
2017-07-15T08:37:52.605Z,44.60
2017-07-15T08:40:20.164Z,44.63
2017-07-15T08:42:47.684Z,45.54
2017-07-15T08:45:15.234Z,45.82
2017-07-15T08:47:42.756Z,45.87
2017-07-15T08:50:10.319Z,46.07
2017-07-15T08:52:37.847Z,45.85
2017-07-15T08:55:05.369Z,45.83
2017-07-15T08:57:32.938Z,45.79
2017-07-15T09:00:00.460Z,46.06
2017-07-15T09:02:28.008Z,46.11
2017-07-15T09:04:55.524Z,46.25
2017-07-15T09:07:23.070Z,46.39
2017-07-15T09:09:50.589Z,46.32
2017-07-15T09:12:18.150Z,46.33
2017-07-15T09:14:45.673Z,46.52
2017-07-15T09:17:13.229Z,46.76
2017-07-15T09:19:40.746Z,46.84
2017-07-15T09:22:08.290Z,47.04
2017-07-15T09:24:35.818Z,47.13
2017-07-15T09:27:03.373Z,47.36
2017-07-15T09:29:30.886Z,47.42
2017-07-15T09:31:58.401Z,47.59
2017-07-15T09:34:25.947Z,47.70
2017-07-15T09:36:53.461Z,47.84
2017-07-15T09:39:21.006Z,48.00
2017-07-15T09:41:48.521Z,48.26
2017-07-15T09:44:16.064Z,48.17
2017-07-15T09:46:43.581Z,48.34
2017-07-15T09:49:11.130Z,48.41
2017-07-15T09:51:39.574Z,49.93
2017-07-15T09:54:07.122Z,50.30
2017-07-15T09:56:34.639Z,50.64
2017-07-15T09:59:02.188Z,51.08
2017-07-15T10:01:29.701Z,50.96
2017-07-15T10:03:57.254Z,50.74
2017-07-15T10:06:24.789Z,50.49
2017-07-15T10:08:52.341Z,50.85
2017-07-15T10:11:19.857Z,50.05
2017-07-15T10:13:47.416Z,51.14
2017-07-15T10:16:14.933Z,52.06
2017-07-15T10:18:42.456Z,50.91
2017-07-15T10:21:10.020Z,49.35
2017-07-15T10:23:37.635Z,49.53
2017-07-15T10:26:05.183Z,49.34
2017-07-15T10:28:34.530Z,49.34
2017-07-15T10:31:02.247Z,48.95
2017-07-15T10:33:30.433Z,48.89
2017-07-15T10:35:58.101Z,48.63
2017-07-15T10:38:25.961Z,48.15
2017-07-15T10:40:53.559Z,47.39
2017-07-15T10:43:21.696Z,46.54
2017-07-15T10:45:50.996Z,47.21
2017-07-15T10:48:19.108Z,47.08
2017-07-15T10:50:46.834Z,46.73
2017-07-15T10:53:17.318Z,46.33
2017-07-15T10:55:45.204Z,46.37
2017-07-15T10:58:12.794Z,46.24
2017-07-15T11:00:40.871Z,46.04
2017-07-15T11:03:08.535Z,45.92
2017-07-15T11:05:36.127Z,45.98
2017-07-15T11:08:04.931Z,45.96
2017-07-15T11:10:32.688Z,45.92
2017-07-15T11:13:00.502Z,45.71
2017-07-15T11:15:28.737Z,45.96
2017-07-15T11:17:56.891Z,45.95
2017-07-15T11:20:24.717Z,45.76
2017-07-15T11:22:52.860Z,45.19
2017-07-15T11:25:20.455Z,45.27
2017-07-15T11:27:48.317Z,45.21
2017-07-15T11:30:16.727Z,44.91
2017-07-15T11:32:44.283Z,45.07
2017-07-15T11:35:12.021Z,44.89
2017-07-15T11:37:40.506Z,44.82
2017-07-15T11:40:08.061Z,44.43
2017-07-15T11:42:35.749Z,44.32
2017-07-15T11:45:04.067Z,44.11
2017-07-15T11:47:32.738Z,43.98
2017-07-15T11:50:01.070Z,44.03
2017-07-15T11:52:29.229Z,44.29
2017-07-15T11:54:56.995Z,44.04
2017-07-15T11:57:25.189Z,43.17
2017-07-15T11:59:53.189Z,43.77
2017-07-15T12:02:21.427Z,42.75
2017-07-15T12:04:49.395Z,42.70
2017-07-15T12:07:18.234Z,42.71
2017-07-15T12:09:47.499Z,42.76
2017-07-15T12:12:15.207Z,43.12
2017-07-15T12:14:43.120Z,43.26
2017-07-15T12:17:10.984Z,43.85
2017-07-15T12:19:39.331Z,43.72
2017-07-15T12:22:06.880Z,43.53
2017-07-15T12:24:34.530Z,43.64
2017-07-15T12:27:02.040Z,43.66
2017-07-15T12:29:29.586Z,43.36
2017-07-15T12:31:57.114Z,43.18
2017-07-15T12:34:24.911Z,43.43
2017-07-15T12:36:52.985Z,43.64
2017-07-15T12:39:21.180Z,43.75
2017-07-15T12:41:48.902Z,43.78
2017-07-15T12:44:16.799Z,43.95
2017-07-15T12:46:44.376Z,43.83
2017-07-15T12:49:12.166Z,43.83
2017-07-15T12:51:40.206Z,43.68
2017-07-15T12:54:07.969Z,43.51
2017-07-15T12:56:35.753Z,43.18
2017-07-15T12:59:03.545Z,43.22
2017-07-15T13:01:31.301Z,43.36
2017-07-15T13:03:59.082Z,43.13
2017-07-15T13:06:26.873Z,43.11
2017-07-15T13:08:54.743Z,42.89
2017-07-15T13:11:22.506Z,43.08
2017-07-15T13:13:50.170Z,43.02
2017-07-15T13:16:17.758Z,43.02
2017-07-15T13:18:45.279Z,42.66
2017-07-15T13:21:12.886Z,42.97
2017-07-15T13:23:40.428Z,42.72
2017-07-15T13:26:08.035Z,42.57
2017-07-15T13:28:35.629Z,42.45
2017-07-15T13:31:03.294Z,42.13
2017-07-15T13:33:31.442Z,41.87
2017-07-15T13:35:59.119Z,41.81
2017-07-15T13:38:27.912Z,41.77
2017-07-15T13:40:55.884Z,41.63
2017-07-15T13:43:23.781Z,41.51
2017-07-15T13:45:51.723Z,41.63
2017-07-15T13:48:19.623Z,41.51
2017-07-15T13:50:47.324Z,41.50
2017-07-15T13:53:15.327Z,41.59
2017-07-15T13:55:43.181Z,41.78
2017-07-15T13:58:11.158Z,41.96
2017-07-15T14:00:39.440Z,41.45
2017-07-15T14:03:07.598Z,41.79
2017-07-15T14:05:35.480Z,41.55
2017-07-15T14:08:03.704Z,41.79
2017-07-15T14:10:31.417Z,41.77
2017-07-15T14:12:59.385Z,41.63
2017-07-15T14:15:26.957Z,41.67
2017-07-15T14:17:54.735Z,41.53
2017-07-15T14:20:22.375Z,41.60
2017-07-15T14:22:50.883Z,41.69
2017-07-15T14:25:18.728Z,41.58
2017-07-15T14:27:46.841Z,41.60
2017-07-15T14:30:15.138Z,41.36
2017-07-15T14:32:44.034Z,41.32
2017-07-15T14:35:11.840Z,41.28
2017-07-15T14:37:40.000Z,41.17
2017-07-15T14:40:07.885Z,41.27
2017-07-15T14:42:35.958Z,41.12
2017-07-15T14:45:04.012Z,41.16
2017-07-15T14:47:32.247Z,41.13
2017-07-15T14:49:59.939Z,41.19
2017-07-15T14:52:27.817Z,40.92
2017-07-15T14:54:55.694Z,41.33
2017-07-15T14:57:23.960Z,41.17
2017-07-15T14:59:52.347Z,40.95
2017-07-15T15:02:20.002Z,40.82
2017-07-15T15:04:49.717Z,40.97
2017-07-15T15:07:17.674Z,40.99
2017-07-15T15:09:45.958Z,40.96
2017-07-15T15:12:15.252Z,40.73
2017-07-15T15:14:43.460Z,40.75
2017-07-15T15:17:11.006Z,40.82
2017-07-15T15:19:38.642Z,40.86
2017-07-15T15:22:06.187Z,41.06
2017-07-15T15:24:34.362Z,40.89
2017-07-15T15:27:02.100Z,40.36
2017-07-15T15:29:29.821Z,40.90
2017-07-15T15:31:57.893Z,40.74
2017-07-15T15:39:29.917Z,40.30
2017-07-15T15:41:57.676Z,40.03
2017-07-15T15:44:25.238Z,40.21
2017-07-15T15:46:52.975Z,40.20
2017-07-15T15:49:20.941Z,40.15
2017-07-15T15:51:48.704Z,39.94
2017-07-15T15:54:16.680Z,39.67
2017-07-15T15:56:44.747Z,39.49
2017-07-15T15:59:12.411Z,39.53
2017-07-15T16:01:40.465Z,39.45
2017-07-15T16:04:08.095Z,38.31
2017-07-15T16:06:36.272Z,39.20
2017-07-15T16:09:03.924Z,39.50
2017-07-15T16:11:31.569Z,39.07
2017-07-15T16:13:59.118Z,38.74
2017-07-15T16:16:27.094Z,38.94
2017-07-15T16:18:54.622Z,38.83
2017-07-15T16:21:22.166Z,38.77
2017-07-15T16:23:49.675Z,38.92
2017-07-15T16:26:17.188Z,38.74
2017-07-15T16:28:45.025Z,38.76
2017-07-15T16:31:12.665Z,38.94
2017-07-15T16:33:40.216Z,38.91
2017-07-15T16:36:07.763Z,38.88
2017-07-15T16:38:35.325Z,38.78
2017-07-15T16:41:02.834Z,38.47
2017-07-15T16:43:30.360Z,38.52
2017-07-15T16:45:57.920Z,38.61
2017-07-15T16:48:25.434Z,37.90
2017-07-15T16:50:53.000Z,38.49
2017-07-15T16:53:20.513Z,38.66
2017-07-15T16:55:48.029Z,38.30
2017-07-15T16:58:15.581Z,38.17
2017-07-15T17:00:43.104Z,38.11
2017-07-15T17:03:10.649Z,38.28
2017-07-15T17:05:38.165Z,38.11
2017-07-15T17:08:05.706Z,38.71
2017-07-15T17:10:33.312Z,38.20
2017-07-15T17:13:00.861Z,38.22
2017-07-15T17:15:28.381Z,38.41
2017-07-15T17:17:55.936Z,37.92
2017-07-15T17:20:23.455Z,38.55
2017-07-15T17:22:51.137Z,38.46
2017-07-15T17:25:18.688Z,38.39
2017-07-15T17:27:46.236Z,38.81
2017-07-15T17:30:13.755Z,38.35
2017-07-15T17:32:41.478Z,38.81
2017-07-15T17:35:09.050Z,38.57
2017-07-15T17:37:36.605Z,38.34
2017-07-15T17:40:04.226Z,38.65
2017-07-15T17:42:31.767Z,38.77
2017-07-15T17:44:59.362Z,38.79
2017-07-15T17:47:26.909Z,38.76
2017-07-15T17:49:54.471Z,38.81
2017-07-15T17:52:21.985Z,38.70
2017-07-15T17:54:49.533Z,38.81
2017-07-15T17:57:17.223Z,38.66
2017-07-15T17:59:44.809Z,38.84
2017-07-15T18:02:12.358Z,39.01
2017-07-15T18:04:39.921Z,38.86
2017-07-15T18:07:07.472Z,38.85
2017-07-15T18:09:35.121Z,38.73
2017-07-15T18:12:02.637Z,38.79
2017-07-15T18:14:30.281Z,38.71
2017-07-15T18:16:57.904Z,38.91
2017-07-15T18:19:25.468Z,39.00
2017-07-15T18:21:53.026Z,39.07
2017-07-15T18:24:20.651Z,39.30
2017-07-15T18:26:48.247Z,39.35
2017-07-15T18:29:15.856Z,39.38
2017-07-15T18:31:43.488Z,39.55
2017-07-15T18:34:11.114Z,39.39
2017-07-15T18:36:38.772Z,39.39
2017-07-15T18:39:06.306Z,39.54
2017-07-15T18:41:33.995Z,39.60
2017-07-15T18:44:01.749Z,39.63
2017-07-15T18:46:29.433Z,39.42
2017-07-15T18:48:56.957Z,39.27
2017-07-15T18:51:24.720Z,39.38
2017-07-15T18:53:52.278Z,39.42
2017-07-15T18:56:19.960Z,39.59
2017-07-15T18:58:47.648Z,39.75
2017-07-15T19:01:15.203Z,39.87
2017-07-15T19:03:43.104Z,39.86
2017-07-15T19:06:10.943Z,39.87
2017-07-15T19:08:38.481Z,39.88
2017-07-15T19:11:06.136Z,40.10
2017-07-15T19:13:33.826Z,40.05
2017-07-15T19:16:01.385Z,40.14
2017-07-15T19:18:29.051Z,40.18
2017-07-15T19:20:56.574Z,40.18
2017-07-15T19:23:24.128Z,40.32
2017-07-15T19:25:51.645Z,40.27
2017-07-15T19:28:19.194Z,40.32
2017-07-15T19:30:46.701Z,40.43
2017-07-15T19:33:14.257Z,40.55
2017-07-15T19:35:41.773Z,40.58
2017-07-15T19:38:09.319Z,40.79
2017-07-15T19:40:36.837Z,40.64
2017-07-15T19:43:04.385Z,40.79
2017-07-15T19:45:31.958Z,40.86
2017-07-15T19:47:59.586Z,40.94
2017-07-15T19:50:27.286Z,41.15
2017-07-15T19:52:54.805Z,41.15
2017-07-15T19:55:22.358Z,41.23
2017-07-15T19:57:49.947Z,41.35
2017-07-15T20:00:17.496Z,41.52
2017-07-15T20:02:45.026Z,41.74
2017-07-15T20:05:12.584Z,41.68
2017-07-15T20:07:40.140Z,41.68
2017-07-15T20:10:07.695Z,41.71
2017-07-15T20:12:35.204Z,41.78
2017-07-15T20:15:02.767Z,41.78
2017-07-15T20:17:30.292Z,41.88
2017-07-15T20:19:57.841Z,42.12
2017-07-15T20:22:25.361Z,42.08
2017-07-15T20:24:52.905Z,42.21
2017-07-15T20:27:20.427Z,42.17
2017-07-15T20:29:48.827Z,42.31
2017-07-15T20:32:16.351Z,42.40
2017-07-15T20:34:43.927Z,42.48
2017-07-15T20:37:14.267Z,42.55
2017-07-15T20:39:41.792Z,42.64
2017-07-15T20:42:09.343Z,42.65
2017-07-15T20:44:36.872Z,42.67
2017-07-15T20:47:04.417Z,42.73
2017-07-15T20:49:31.966Z,42.71
2017-07-15T20:52:05.156Z,42.74
2017-07-15T20:54:32.675Z,42.73
2017-07-15T20:57:00.227Z,42.75
2017-07-15T20:59:27.734Z,42.79
2017-07-15T21:01:55.290Z,42.79
2017-07-15T21:04:22.808Z,42.94
2017-07-15T21:06:50.354Z,42.86
2017-07-15T21:09:17.877Z,42.92
2017-07-15T21:11:45.436Z,42.82
2017-07-15T21:14:12.949Z,42.96
2017-07-15T21:16:40.510Z,43.04
2017-07-15T21:19:08.035Z,43.00
2017-07-15T21:21:35.585Z,43.02
2017-07-15T21:24:03.156Z,43.12
2017-07-15T21:26:30.675Z,43.18
2017-07-15T21:28:58.223Z,43.10
2017-07-15T21:31:25.740Z,43.24
2017-07-15T21:33:53.284Z,43.18
2017-07-15T21:36:20.794Z,43.24
2017-07-15T21:38:48.354Z,43.21
2017-07-15T21:41:15.863Z,43.27
2017-07-15T21:43:43.414Z,43.31
2017-07-15T21:46:10.929Z,43.40
2017-07-15T21:48:38.697Z,43.32
2017-07-15T21:51:06.216Z,43.38
2017-07-15T21:53:33.761Z,43.40
2017-07-15T21:56:01.281Z,43.44
2017-07-15T21:58:28.821Z,43.45
2017-07-15T22:00:56.333Z,43.54
2017-07-15T22:03:23.893Z,43.54
2017-07-15T22:05:51.410Z,43.45
2017-07-15T22:08:18.927Z,43.35
2017-07-15T22:10:46.477Z,43.43
2017-07-15T22:13:14.000Z,43.38
2017-07-15T22:15:41.558Z,43.35
2017-07-15T22:18:09.086Z,43.41
2017-07-15T22:20:36.639Z,43.41
2017-07-15T22:23:04.162Z,43.38
2017-07-15T22:25:31.708Z,43.40
2017-07-15T22:27:59.229Z,43.62
2017-07-15T22:30:26.784Z,43.40
2017-07-15T22:32:54.298Z,43.39
2017-07-15T22:35:21.847Z,43.35
2017-07-15T22:37:49.369Z,43.37
2017-07-15T22:40:16.917Z,43.37
2017-07-15T22:42:44.429Z,43.43
2017-07-15T22:45:12.006Z,43.43
2017-07-15T22:47:39.529Z,43.41
2017-07-15T22:50:07.049Z,43.48
2017-07-15T22:52:34.598Z,43.46
2017-07-15T22:55:02.116Z,43.45
2017-07-15T22:57:29.670Z,43.58
2017-07-15T22:59:57.202Z,43.48
2017-07-15T23:02:24.748Z,43.46
2017-07-15T23:04:52.279Z,43.51
2017-07-15T23:07:19.824Z,43.45
2017-07-15T23:09:47.337Z,43.40
2017-07-15T23:12:14.884Z,43.38
2017-07-15T23:14:42.397Z,43.42
2017-07-15T23:17:09.941Z,43.38
2017-07-15T23:19:37.454Z,43.38
2017-07-15T23:22:04.997Z,43.38
2017-07-15T23:24:32.509Z,43.30
2017-07-15T23:27:00.068Z,43.35
2017-07-15T23:29:27.587Z,43.40
2017-07-15T23:31:55.106Z,43.29
2017-07-15T23:34:22.655Z,43.23
2017-07-15T23:36:50.170Z,43.32
2017-07-15T23:39:17.718Z,43.31
2017-07-15T23:41:45.232Z,43.29
2017-07-15T23:44:12.787Z,43.27
2017-07-15T23:46:40.309Z,43.30
2017-07-15T23:49:07.848Z,43.26
2017-07-15T23:51:35.365Z,43.27
2017-07-15T23:54:02.909Z,43.21
2017-07-15T23:56:30.427Z,43.20
2017-07-15T23:58:57.981Z,43.16
